sensor_id;sensor_type;location;lat;lon;timestamp;pressure;altitude;pressure_sealevel;temperature;humidity
15405;BME280;7801;48.124;11.590;2023-05-24T00:01:56;95588.37;;;15.45;81.92
15405;BME280;7801;48.124;11.590;2023-05-24T00:04:21;95581.75;;;15.68;84.63
15405;BME280;7801;48.124;11.590;2023-05-24T00:06:49;95580.03;;;15.64;82.37
15405;BME280;7801;48.124;11.590;2023-05-24T00:09:15;95578.78;;;15.53;81.76
15405;BME280;7801;48.124;11.590;2023-05-24T00:11:40;95572.47;;;15.66;83.24
15405;BME280;7801;48.124;11.590;2023-05-24T00:14:05;95574.34;;;15.74;85.12
15405;BME280;7801;48.124;11.590;2023-05-24T00:16:31;95571.84;;;15.60;83.06
15405;BME280;7801;48.124;11.590;2023-05-24T00:18:56;95562.56;;;15.66;84.82
15405;BME280;7801;48.124;11.590;2023-05-24T00:21:23;95565.72;;;15.51;82.76
15405;BME280;7801;48.124;11.590;2023-05-24T00:23:48;95566.19;;;15.44;83.73
15405;BME280;7801;48.124;11.590;2023-05-24T00:26:16;95574.88;;;15.33;82.99
15405;BME280;7801;48.124;11.590;2023-05-24T00:28:41;95571.25;;;15.37;82.87
15405;BME280;7801;48.124;11.590;2023-05-24T00:31:07;95570.91;;;15.39;83.09
15405;BME280;7801;48.124;11.590;2023-05-24T00:33:32;95568.28;;;15.30;82.93
15405;BME280;7801;48.124;11.590;2023-05-24T00:35:58;95562.63;;;15.32;84.53
15405;BME280;7801;48.124;11.590;2023-05-24T00:38:26;95561.50;;;15.33;83.47
15405;BME280;7801;48.124;11.590;2023-05-24T00:40:52;95561.50;;;15.24;84.07
15405;BME280;7801;48.124;11.590;2023-05-24T00:43:20;95565.31;;;15.06;82.91
15405;BME280;7801;48.124;11.590;2023-05-24T00:45:45;95561.53;;;15.07;83.58
15405;BME280;7801;48.124;11.590;2023-05-24T00:48:11;95563.88;;;15.00;84.74
15405;BME280;7801;48.124;11.590;2023-05-24T00:50:37;95560.28;;;14.87;83.88
15405;BME280;7801;48.124;11.590;2023-05-24T00:53:03;95558.88;;;14.90;85.66
15405;BME280;7801;48.124;11.590;2023-05-24T00:55:29;95553.84;;;15.05;86.89
15405;BME280;7801;48.124;11.590;2023-05-24T00:57:58;95555.75;;;14.96;84.98
15405;BME280;7801;48.124;11.590;2023-05-24T01:00:24;95552.44;;;15.17;85.86
15405;BME280;7801;48.124;11.590;2023-05-24T01:02:50;95559.97;;;15.06;84.39
15405;BME280;7801;48.124;11.590;2023-05-24T01:05:16;95560.44;;;14.99;83.32
15405;BME280;7801;48.124;11.590;2023-05-24T01:15:50;95557.13;;;14.85;84.98
15405;BME280;7801;48.124;11.590;2023-05-24T01:18:25;95550.69;;;14.86;85.51
15405;BME280;7801;48.124;11.590;2023-05-24T01:26:36;95537.81;;;14.88;86.18
15405;BME280;7801;48.124;11.590;2023-05-24T01:29:03;95543.63;;;14.90;85.77
15405;BME280;7801;48.124;11.590;2023-05-24T01:31:30;95542.19;;;15.01;86.57
15405;BME280;7801;48.124;11.590;2023-05-24T01:33:55;95540.78;;;15.12;85.25
15405;BME280;7801;48.124;11.590;2023-05-24T01:36:21;95544.25;;;14.96;84.52
15405;BME280;7801;48.124;11.590;2023-05-24T01:38:47;95545.81;;;14.88;85.20
15405;BME280;7801;48.124;11.590;2023-05-24T01:41:22;95544.41;;;14.99;86.71
15405;BME280;7801;48.124;11.590;2023-05-24T01:43:56;95541.87;;;15.20;86.85
15405;BME280;7801;48.124;11.590;2023-05-24T01:46:33;95549.56;;;15.30;87.02
15405;BME280;7801;48.124;11.590;2023-05-24T01:49:17;95544.41;;;15.17;85.47
15405;BME280;7801;48.124;11.590;2023-05-24T01:52:15;95542.19;;;15.19;84.85
15405;BME280;7801;48.124;11.590;2023-05-24T01:54:43;95558.50;;;15.43;87.37
15405;BME280;7801;48.124;11.590;2023-05-24T01:57:10;95556.16;;;15.33;83.99
15405;BME280;7801;48.124;11.590;2023-05-24T01:59:37;95553.19;;;15.26;84.81
15405;BME280;7801;48.124;11.590;2023-05-24T02:02:04;95548.47;;;15.23;85.55
15405;BME280;7801;48.124;11.590;2023-05-24T02:04:30;95554.75;;;15.27;86.75
15405;BME280;7801;48.124;11.590;2023-05-24T02:06:55;95547.06;;;15.17;85.50
15405;BME280;7801;48.124;11.590;2023-05-24T02:09:20;95548.66;;;15.09;85.24
15405;BME280;7801;48.124;11.590;2023-05-24T02:11:46;95542.50;;;15.08;85.13
15405;BME280;7801;48.124;11.590;2023-05-24T02:14:11;95550.37;;;15.13;85.00
15405;BME280;7801;48.124;11.590;2023-05-24T02:16:37;95545.81;;;15.14;83.92
15405;BME280;7801;48.124;11.590;2023-05-24T02:19:07;95546.28;;;15.07;85.20
15405;BME280;7801;48.124;11.590;2023-05-24T02:21:33;95546.75;;;15.09;85.72
15405;BME280;7801;48.124;11.590;2023-05-24T02:23:58;95545.97;;;14.83;85.00
15405;BME280;7801;48.124;11.590;2023-05-24T02:26:23;95551.78;;;14.85;85.35
15405;BME280;7801;48.124;11.590;2023-05-24T02:28:50;95554.00;;;14.83;84.47
15405;BME280;7801;48.124;11.590;2023-05-24T02:31:15;95543.78;;;14.85;86.37
15405;BME280;7801;48.124;11.590;2023-05-24T02:33:40;95544.25;;;14.87;85.24
15405;BME280;7801;48.124;11.590;2023-05-24T02:36:06;95542.06;;;14.72;85.66
15405;BME280;7801;48.124;11.590;2023-05-24T02:38:31;95548.78;;;14.78;85.77
15405;BME280;7801;48.124;11.590;2023-05-24T02:40:57;95543.78;;;14.68;85.76
15405;BME280;7801;48.124;11.590;2023-05-24T02:43:22;95545.53;;;14.72;87.02
15405;BME280;7801;48.124;11.590;2023-05-24T02:45:47;95544.41;;;14.82;88.87
15405;BME280;7801;48.124;11.590;2023-05-24T02:48:13;95540.16;;;14.90;87.63
15405;BME280;7801;48.124;11.590;2023-05-24T02:50:38;95537.19;;;14.91;87.10
15405;BME280;7801;48.124;11.590;2023-05-24T02:53:03;95543.78;;;14.85;87.54
15405;BME280;7801;48.124;11.590;2023-05-24T02:55:29;95542.06;;;14.89;85.90
15405;BME280;7801;48.124;11.590;2023-05-24T02:57:56;95540.00;;;14.86;85.65
15405;BME280;7801;48.124;11.590;2023-05-24T03:00:21;95536.88;;;14.84;86.49
15405;BME280;7801;48.124;11.590;2023-05-24T03:02:47;95535.16;;;14.88;86.85
15405;BME280;7801;48.124;11.590;2023-05-24T03:05:15;95536.25;;;14.70;85.19
15405;BME280;7801;48.124;11.590;2023-05-24T03:07:40;95534.97;;;14.76;85.76
15405;BME280;7801;48.124;11.590;2023-05-24T03:10:06;95536.09;;;14.75;85.42
15405;BME280;7801;48.124;11.590;2023-05-24T03:12:32;95536.38;;;14.65;85.68
15405;BME280;7801;48.124;11.590;2023-05-24T03:14:57;95534.66;;;14.60;85.25
15405;BME280;7801;48.124;11.590;2023-05-24T03:17:22;95538.25;;;14.56;86.30
15405;BME280;7801;48.124;11.590;2023-05-24T03:19:48;95537.50;;;14.64;86.87
15405;BME280;7801;48.124;11.590;2023-05-24T03:22:13;95532.78;;;14.78;86.89
15405;BME280;7801;48.124;11.590;2023-05-24T03:24:39;95531.84;;;14.74;85.39
15405;BME280;7801;48.124;11.590;2023-05-24T03:27:05;95528.69;;;14.81;84.99
15405;BME280;7801;48.124;11.590;2023-05-24T03:29:30;95541.41;;;14.84;86.20
15405;BME280;7801;48.124;11.590;2023-05-24T03:31:56;95543.16;;;14.88;84.98
15405;BME280;7801;48.124;11.590;2023-05-24T03:34:22;95538.75;;;14.84;84.64
15405;BME280;7801;48.124;11.590;2023-05-24T03:36:47;95536.53;;;14.60;84.75
15405;BME280;7801;48.124;11.590;2023-05-24T03:39:12;95536.84;;;14.50;85.29
15405;BME280;7801;48.124;11.590;2023-05-24T03:41:38;95545.66;;;14.59;87.39
15405;BME280;7801;48.124;11.590;2023-05-24T03:44:03;95543.78;;;14.51;86.21
15405;BME280;7801;48.124;11.590;2023-05-24T03:46:28;95545.62;;;14.41;85.41
15405;BME280;7801;48.124;11.590;2023-05-24T03:48:54;95553.50;;;14.47;86.78
15405;BME280;7801;48.124;11.590;2023-05-24T03:51:19;95548.09;;;14.29;86.43
15405;BME280;7801;48.124;11.590;2023-05-24T03:53:47;95553.75;;;14.36;87.62
15405;BME280;7801;48.124;11.590;2023-05-24T03:56:12;95562.91;;;14.44;87.84
15405;BME280;7801;48.124;11.590;2023-05-24T03:58:38;95560.81;;;14.32;85.66
15405;BME280;7801;48.124;11.590;2023-05-24T04:01:03;95561.91;;;14.31;85.68
15405;BME280;7801;48.124;11.590;2023-05-24T04:03:28;95562.22;;;14.38;86.35
15405;BME280;7801;48.124;11.590;2023-05-24T04:05:54;95559.72;;;14.33;86.47
15405;BME280;7801;48.124;11.590;2023-05-24T04:08:19;95567.84;;;14.20;85.26
15405;BME280;7801;48.124;11.590;2023-05-24T04:10:44;95568.03;;;14.32;87.35
15405;BME280;7801;48.124;11.590;2023-05-24T04:13:10;95561.91;;;14.31;86.78
15405;BME280;7801;48.124;11.590;2023-05-24T04:15:35;95564.72;;;14.26;86.06
15405;BME280;7801;48.124;11.590;2023-05-24T04:18:02;95572.13;;;14.29;87.03
15405;BME280;7801;48.124;11.590;2023-05-24T04:20:27;95567.41;;;14.35;87.88
15405;BME280;7801;48.124;11.590;2023-05-24T04:22:53;95565.59;;;14.53;87.51
15405;BME280;7801;48.124;11.590;2023-05-24T04:25:20;95560.25;;;14.53;86.11
15405;BME280;7801;48.124;11.590;2023-05-24T04:27:45;95569.19;;;14.57;86.77
15405;BME280;7801;48.124;11.590;2023-05-24T04:30:14;95566.38;;;14.53;85.03
15405;BME280;7801;48.124;11.590;2023-05-24T04:32:41;95562.47;;;14.68;86.98
15405;BME280;7801;48.124;11.590;2023-05-24T04:35:08;95570.81;;;14.75;86.57
15405;BME280;7801;48.124;11.590;2023-05-24T04:37:34;95561.19;;;14.57;84.96
15405;BME280;7801;48.124;11.590;2023-05-24T04:39:59;95572.97;;;14.47;85.02
15405;BME280;7801;48.124;11.590;2023-05-24T04:42:24;95570.63;;;14.54;87.75
15405;BME280;7801;48.124;11.590;2023-05-24T04:44:51;95564.03;;;14.52;87.90
15405;BME280;7801;48.124;11.590;2023-05-24T04:47:16;95567.47;;;14.61;87.49
15405;BME280;7801;48.124;11.590;2023-05-24T04:49:41;95569.88;;;14.71;87.79
15405;BME280;7801;48.124;11.590;2023-05-24T04:52:07;95571.56;;;14.58;86.95
15405;BME280;7801;48.124;11.590;2023-05-24T04:54:32;95564.03;;;14.60;86.76
15405;BME280;7801;48.124;11.590;2023-05-24T04:56:58;95575.50;;;14.52;85.38
15405;BME280;7801;48.124;11.590;2023-05-24T04:59:23;95574.53;;;14.57;86.11
15405;BME280;7801;48.124;11.590;2023-05-24T05:01:49;95572.34;;;14.59;86.82
15405;BME280;7801;48.124;11.590;2023-05-24T05:04:14;95579.25;;;14.60;87.70
15405;BME280;7801;48.124;11.590;2023-05-24T05:06:40;95579.25;;;14.51;86.05
15405;BME280;7801;48.124;11.590;2023-05-24T05:09:07;95578.78;;;14.49;85.68
15405;BME280;7801;48.124;11.590;2023-05-24T05:11:39;95577.38;;;14.52;84.55
15405;BME280;7801;48.124;11.590;2023-05-24T05:14:04;95578.31;;;14.56;85.80
15405;BME280;7801;48.124;11.590;2023-05-24T05:16:34;95577.38;;;14.52;85.46
15405;BME280;7801;48.124;11.590;2023-05-24T05:19:02;95579.41;;;14.46;83.78
15405;BME280;7801;48.124;11.590;2023-05-24T05:21:31;95581.31;;;14.63;86.54
15405;BME280;7801;48.124;11.590;2023-05-24T05:24:00;95581.44;;;14.49;84.47
15405;BME280;7801;48.124;11.590;2023-05-24T05:26:26;95580.22;;;14.64;84.96
15405;BME280;7801;48.124;11.590;2023-05-24T05:28:51;95573.16;;;14.68;84.40
15405;BME280;7801;48.124;11.590;2023-05-24T05:31:18;95581.44;;;14.58;83.06
15405;BME280;7801;48.124;11.590;2023-05-24T05:33:44;95583.34;;;14.57;84.30
15405;BME280;7801;48.124;11.590;2023-05-24T05:36:09;95583.28;;;14.31;83.25
15405;BME280;7801;48.124;11.590;2023-05-24T05:38:34;95581.63;;;14.53;83.31
15405;BME280;7801;48.124;11.590;2023-05-24T05:41:00;95583.88;;;14.28;83.59
15405;BME280;7801;48.124;11.590;2023-05-24T05:43:25;95583.09;;;14.28;83.04
15405;BME280;7801;48.124;11.590;2023-05-24T05:45:50;95575.00;;;14.41;85.39
15405;BME280;7801;48.124;11.590;2023-05-24T05:48:16;95570.47;;;14.59;86.08
15405;BME280;7801;48.124;11.590;2023-05-24T05:50:41;95574.22;;;14.58;84.48
15405;BME280;7801;48.124;11.590;2023-05-24T05:53:06;95583.03;;;14.59;82.80
15405;BME280;7801;48.124;11.590;2023-05-24T05:55:31;95570.16;;;14.61;83.68
15405;BME280;7801;48.124;11.590;2023-05-24T05:57:57;95577.53;;;14.64;82.61
15405;BME280;7801;48.124;11.590;2023-05-24T06:00:22;95577.84;;;14.54;83.19
15405;BME280;7801;48.124;11.590;2023-05-24T06:02:47;95572.56;;;14.23;82.64
15405;BME280;7801;48.124;11.590;2023-05-24T06:05:13;95573.81;;;14.25;83.29
15405;BME280;7801;48.124;11.590;2023-05-24T06:07:38;95570.75;;;14.40;84.79
15405;BME280;7801;48.124;11.590;2023-05-24T06:10:04;95563.09;;;14.65;85.95
15405;BME280;7801;48.124;11.590;2023-05-24T06:12:30;95565.31;;;14.71;84.25
15405;BME280;7801;48.124;11.590;2023-05-24T06:14:55;95558.22;;;14.67;81.65
15405;BME280;7801;48.124;11.590;2023-05-24T06:17:21;95567.78;;;14.59;80.72
15405;BME280;7801;48.124;11.590;2023-05-24T06:19:49;95564.50;;;14.54;83.35
15405;BME280;7801;48.124;11.590;2023-05-24T06:22:15;95563.41;;;14.55;82.55
15405;BME280;7801;48.124;11.590;2023-05-24T06:24:40;95563.84;;;14.57;81.70
15405;BME280;7801;48.124;11.590;2023-05-24T06:27:06;95564.19;;;14.64;80.32
15405;BME280;7801;48.124;11.590;2023-05-24T06:29:31;95567.94;;;14.46;79.89
15405;BME280;7801;48.124;11.590;2023-05-24T06:31:56;95567.47;;;14.43;79.96
15405;BME280;7801;48.124;11.590;2023-05-24T06:34:22;95563.41;;;14.15;81.39
15405;BME280;7801;48.124;11.590;2023-05-24T06:36:47;95565.00;;;14.16;81.72
15405;BME280;7801;48.124;11.590;2023-05-24T06:39:15;95563.81;;;14.31;80.92
15405;BME280;7801;48.124;11.590;2023-05-24T06:41:42;95560.56;;;14.51;80.98
15405;BME280;7801;48.124;11.590;2023-05-24T06:44:08;95563.06;;;14.56;81.46
15405;BME280;7801;48.124;11.590;2023-05-24T06:46:33;95568.88;;;14.58;80.80
15405;BME280;7801;48.124;11.590;2023-05-24T06:48:59;95564.34;;;14.67;80.95
15405;BME280;7801;48.124;11.590;2023-05-24T06:51:24;95564.53;;;14.88;79.06
15405;BME280;7801;48.124;11.590;2023-05-24T06:53:50;95563.56;;;15.01;78.06
15405;BME280;7801;48.124;11.590;2023-05-24T06:56:16;95565.78;;;14.82;78.83
15405;BME280;7801;48.124;11.590;2023-05-24T06:58:41;95577.38;;;14.52;79.61
15405;BME280;7801;48.124;11.590;2023-05-24T07:01:07;95580.13;;;14.29;80.87
15405;BME280;7801;48.124;11.590;2023-05-24T07:03:33;95572.91;;;14.30;80.67
15405;BME280;7801;48.124;11.590;2023-05-24T07:05:58;95578.53;;;14.28;80.84
15405;BME280;7801;48.124;11.590;2023-05-24T07:08:24;95575.50;;;14.52;80.54
15405;BME280;7801;48.124;11.590;2023-05-24T07:10:49;95576.09;;;14.58;80.60
15405;BME280;7801;48.124;11.590;2023-05-24T07:13:15;95575.31;;;14.57;80.05
15405;BME280;7801;48.124;11.590;2023-05-24T07:15:41;95580.22;;;14.72;79.42
15405;BME280;7801;48.124;11.590;2023-05-24T07:18:06;95585.72;;;14.76;79.22
15405;BME280;7801;48.124;11.590;2023-05-24T07:20:32;95584.62;;;14.86;79.36
15405;BME280;7801;48.124;11.590;2023-05-24T07:22:57;95582.75;;;14.86;77.79
15405;BME280;7801;48.124;11.590;2023-05-24T07:25:24;95580.56;;;14.88;77.30
15405;BME280;7801;48.124;11.590;2023-05-24T07:27:49;95581.19;;;14.85;77.12
15405;BME280;7801;48.124;11.590;2023-05-24T07:30:15;95579.44;;;14.81;76.40
15405;BME280;7801;48.124;11.590;2023-05-24T07:32:41;95580.09;;;14.95;76.38
15405;BME280;7801;48.124;11.590;2023-05-24T07:35:06;95581.31;;;14.97;76.36
15405;BME280;7801;48.124;11.590;2023-05-24T07:37:32;95576.31;;;14.87;76.77
15405;BME280;7801;48.124;11.590;2023-05-24T07:39:57;95578.66;;;14.89;77.36
15405;BME280;7801;48.124;11.590;2023-05-24T07:42:23;95576.62;;;14.86;77.18
15405;BME280;7801;48.124;11.590;2023-05-24T07:44:48;95582.75;;;14.86;76.76
15405;BME280;7801;48.124;11.590;2023-05-24T07:47:13;95584.31;;;15.04;76.29
15405;BME280;7801;48.124;11.590;2023-05-24T07:49:38;95587.78;;;15.13;76.71
15405;BME280;7801;48.124;11.590;2023-05-24T07:52:04;95584.19;;;15.09;76.08
15405;BME280;7801;48.124;11.590;2023-05-24T07:54:30;95583.06;;;15.10;76.42
15405;BME280;7801;48.124;11.590;2023-05-24T07:56:55;95581.50;;;15.09;75.74
15405;BME280;7801;48.124;11.590;2023-05-24T07:59:21;95582.44;;;15.31;75.33
15405;BME280;7801;48.124;11.590;2023-05-24T08:01:47;95583.53;;;15.30;74.96
15405;BME280;7801;48.124;11.590;2023-05-24T08:04:12;95587.16;;;15.34;74.90
15405;BME280;7801;48.124;11.590;2023-05-24T08:06:37;95583.69;;;15.07;75.90
15405;BME280;7801;48.124;11.590;2023-05-24T08:09:04;95592.31;;;15.39;74.58
15405;BME280;7801;48.124;11.590;2023-05-24T08:11:29;95596.88;;;15.21;76.39
15405;BME280;7801;48.124;11.590;2023-05-24T08:13:55;95588.09;;;15.03;77.21
15405;BME280;7801;48.124;11.590;2023-05-24T08:16:20;95593.13;;;15.31;76.67
15405;BME280;7801;48.124;11.590;2023-05-24T08:18:46;95585.06;;;15.39;74.86
15405;BME280;7801;48.124;11.590;2023-05-24T08:21:11;95583.06;;;15.28;75.56
15405;BME280;7801;48.124;11.590;2023-05-24T08:23:37;95582.88;;;15.41;75.22
15405;BME280;7801;48.124;11.590;2023-05-24T08:26:02;95594.81;;;15.44;73.92
15405;BME280;7801;48.124;11.590;2023-05-24T08:28:28;95588.69;;;15.52;73.29
15405;BME280;7801;48.124;11.590;2023-05-24T08:30:53;95604.88;;;15.47;74.55
15405;BME280;7801;48.124;11.590;2023-05-24T08:33:19;95602.06;;;15.43;74.75
15405;BME280;7801;48.124;11.590;2023-05-24T08:35:47;95602.09;;;15.35;75.04
15405;BME280;7801;48.124;11.590;2023-05-24T08:38:12;95601.63;;;15.33;75.66
15405;BME280;7801;48.124;11.590;2023-05-24T08:40:38;95605.03;;;15.42;76.39
15405;BME280;7801;48.124;11.590;2023-05-24T08:43:03;95597.50;;;15.44;75.33
15405;BME280;7801;48.124;11.590;2023-05-24T08:45:36;95606.97;;;15.33;75.05
15405;BME280;7801;48.124;11.590;2023-05-24T08:48:02;95598.59;;;15.52;73.51
15405;BME280;7801;48.124;11.590;2023-05-24T08:50:29;95603.16;;;15.51;75.42
15405;BME280;7801;48.124;11.590;2023-05-24T08:52:54;95602.56;;;15.37;75.41
15405;BME280;7801;48.124;11.590;2023-05-24T08:55:20;95605.69;;;15.47;74.35
15405;BME280;7801;48.124;11.590;2023-05-24T08:57:46;95605.84;;;15.51;73.70
15405;BME280;7801;48.124;11.590;2023-05-24T09:00:12;95614.81;;;15.55;74.70
15405;BME280;7801;48.124;11.590;2023-05-24T09:02:39;95610.41;;;15.42;73.19
15405;BME280;7801;48.124;11.590;2023-05-24T09:05:09;95609.00;;;15.19;73.99
15405;BME280;7801;48.124;11.590;2023-05-24T09:07:37;95612.44;;;15.19;74.12
15405;BME280;7801;48.124;11.590;2023-05-24T09:10:05;95615.59;;;15.21;75.49
15405;BME280;7801;48.124;11.590;2023-05-24T09:12:31;95613.56;;;15.09;74.48
15405;BME280;7801;48.124;11.590;2023-05-24T09:14:57;95611.34;;;15.20;74.54
15405;BME280;7801;48.124;11.590;2023-05-24T09:17:23;95610.87;;;15.18;74.48
15405;BME280;7801;48.124;11.590;2023-05-24T09:19:49;95607.91;;;15.20;74.39
15405;BME280;7801;48.124;11.590;2023-05-24T09:22:16;95615.28;;;15.23;74.25
15405;BME280;7801;48.124;11.590;2023-05-24T09:24:48;95622.22;;;15.32;73.58
15405;BME280;7801;48.124;11.590;2023-05-24T09:27:17;95624.25;;;15.09;73.19
15405;BME280;7801;48.124;11.590;2023-05-24T09:29:46;95627.06;;;15.22;72.90
15405;BME280;7801;48.124;11.590;2023-05-24T09:32:16;95631.19;;;15.10;72.40
15405;BME280;7801;48.124;11.590;2023-05-24T09:34:44;95625.19;;;14.96;71.76
15405;BME280;7801;48.124;11.590;2023-05-24T09:37:15;95624.53;;;14.82;72.75
15405;BME280;7801;48.124;11.590;2023-05-24T09:39:45;95626.91;;;14.92;72.85
15405;BME280;7801;48.124;11.590;2023-05-24T09:42:18;95625.34;;;14.91;71.40
15405;BME280;7801;48.124;11.590;2023-05-24T09:44:49;95632.41;;;14.87;73.03
15405;BME280;7801;48.124;11.590;2023-05-24T09:47:27;95631.31;;;14.97;73.44
15405;BME280;7801;48.124;11.590;2023-05-24T09:49:54;95625.00;;;14.84;73.61
15405;BME280;7801;48.124;11.590;2023-05-24T09:52:20;95628.50;;;15.10;72.42
15405;BME280;7801;48.124;11.590;2023-05-24T09:54:46;95629.28;;;15.02;72.34
15405;BME280;7801;48.124;11.590;2023-05-24T09:57:14;95629.75;;;14.87;73.21
15405;BME280;7801;48.124;11.590;2023-05-24T09:59:40;95624.56;;;14.99;72.78
15405;BME280;7801;48.124;11.590;2023-05-24T10:02:08;95619.22;;;14.99;72.14
15405;BME280;7801;48.124;11.590;2023-05-24T10:04:34;95635.09;;;15.13;72.14
15405;BME280;7801;48.124;11.590;2023-05-24T10:07:01;95628.31;;;14.98;74.37
15405;BME280;7801;48.124;11.590;2023-05-24T10:09:28;95627.06;;;15.04;75.02
15405;BME280;7801;48.124;11.590;2023-05-24T10:12:00;95636.97;;;15.21;73.48
15405;BME280;7801;48.124;11.590;2023-05-24T10:14:28;95629.44;;;15.15;74.54
15405;BME280;7801;48.124;11.590;2023-05-24T10:16:55;95631.78;;;15.07;73.17
15405;BME280;7801;48.124;11.590;2023-05-24T10:19:21;95628.63;;;14.97;74.65
15405;BME280;7801;48.124;11.590;2023-05-24T10:21:48;95634.47;;;14.90;75.37
15405;BME280;7801;48.124;11.590;2023-05-24T10:24:16;95636.34;;;14.90;74.62
15405;BME280;7801;48.124;11.590;2023-05-24T10:26:44;95635.22;;;14.82;76.11
15405;BME280;7801;48.124;11.590;2023-05-24T10:29:22;95641.53;;;14.86;77.09
15405;BME280;7801;48.124;11.590;2023-05-24T10:31:50;95641.37;;;14.91;78.19
15405;BME280;7801;48.124;11.590;2023-05-24T10:34:17;95643.22;;;14.82;79.41
15405;BME280;7801;48.124;11.590;2023-05-24T10:36:43;95651.56;;;14.72;81.26
15405;BME280;7801;48.124;11.590;2023-05-24T10:39:09;95648.19;;;14.49;81.34
15405;BME280;7801;48.124;11.590;2023-05-24T10:41:39;95648.97;;;14.50;81.43
15405;BME280;7801;48.124;11.590;2023-05-24T10:44:12;95641.59;;;14.55;78.22
15405;BME280;7801;48.124;11.590;2023-05-24T10:49:28;95644.13;;;14.60;79.13
15405;BME280;7801;48.124;11.590;2023-05-24T10:52:00;95643.34;;;14.60;76.54
15405;BME280;7801;48.124;11.590;2023-05-24T10:54:26;95646.31;;;14.58;79.12
15405;BME280;7801;48.124;11.590;2023-05-24T10:56:52;95661.22;;;14.51;74.98
15405;BME280;7801;48.124;11.590;2023-05-24T10:59:37;95642.38;;;14.47;77.30
15405;BME280;7801;48.124;11.590;2023-05-24T11:02:08;95641.59;;;14.55;76.93
15405;BME280;7801;48.124;11.590;2023-05-24T11:04:38;95650.31;;;14.38;75.97
15405;BME280;7801;48.124;11.590;2023-05-24T11:07:06;95648.97;;;14.50;75.52
15405;BME280;7801;48.124;11.590;2023-05-24T11:09:37;95643.88;;;14.39;77.08
15405;BME280;7801;48.124;11.590;2023-05-24T11:12:13;95642.31;;;14.38;76.81
15405;BME280;7801;48.124;11.590;2023-05-24T11:14:39;95643.97;;;14.57;73.79
15405;BME280;7801;48.124;11.590;2023-05-24T11:17:06;95630.91;;;14.47;74.47
15405;BME280;7801;48.124;11.590;2023-05-24T11:19:36;95640.97;;;14.50;73.53
15405;BME280;7801;48.124;11.590;2023-05-24T11:22:05;95643.66;;;14.50;75.48
15405;BME280;7801;48.124;11.590;2023-05-24T11:24:31;95647.41;;;14.49;74.22
15405;BME280;7801;48.124;11.590;2023-05-24T11:26:58;95639.41;;;14.49;74.74
15405;BME280;7801;48.124;11.590;2023-05-24T11:29:24;95643.97;;;14.57;74.60
15405;BME280;7801;48.124;11.590;2023-05-24T11:31:51;95640.84;;;14.55;76.32
15405;BME280;7801;48.124;11.590;2023-05-24T11:34:22;95639.91;;;14.68;73.32
15405;BME280;7801;48.124;11.590;2023-05-24T11:36:49;95629.41;;;14.80;72.52
15405;BME280;7801;48.124;11.590;2023-05-24T11:39:16;95640.91;;;14.89;72.45
15405;BME280;7801;48.124;11.590;2023-05-24T11:41:42;95642.13;;;14.74;70.01
15405;BME280;7801;48.124;11.590;2023-05-24T11:44:09;95640.56;;;14.82;71.25
15405;BME280;7801;48.124;11.590;2023-05-24T11:46:36;95635.06;;;14.78;72.03
15405;BME280;7801;48.124;11.590;2023-05-24T11:49:03;95636.16;;;14.69;72.78
15405;BME280;7801;48.124;11.590;2023-05-24T11:51:30;95630.97;;;14.81;73.11
15405;BME280;7801;48.124;11.590;2023-05-24T11:53:57;95631.28;;;14.79;73.01
15405;BME280;7801;48.124;11.590;2023-05-24T11:56:24;95639.31;;;14.71;72.84
15405;BME280;7801;48.124;11.590;2023-05-24T11:58:51;95636.00;;;14.74;73.28
15405;BME280;7801;48.124;11.590;2023-05-24T12:01:24;95635.06;;;14.87;73.22
15405;BME280;7801;48.124;11.590;2023-05-24T12:03:50;95636.50;;;14.93;69.24
15405;BME280;7801;48.124;11.590;2023-05-24T12:06:17;95630.50;;;14.79;70.80
15405;BME280;7801;48.124;11.590;2023-05-24T12:08:42;95633.13;;;14.62;72.32
15405;BME280;7801;48.124;11.590;2023-05-24T12:11:08;95632.56;;;14.82;73.38
15405;BME280;7801;48.124;11.590;2023-05-24T12:13:33;95637.12;;;14.90;71.00
15405;BME280;7801;48.124;11.590;2023-05-24T12:16:01;95640.41;;;14.87;70.70
15405;BME280;7801;48.124;11.590;2023-05-24T12:18:27;95639.31;;;14.88;69.33
15405;BME280;7801;48.124;11.590;2023-05-24T12:20:53;95637.09;;;14.82;69.85
15405;BME280;7801;48.124;11.590;2023-05-24T12:23:20;95641.69;;;14.90;71.53
15405;BME280;7801;48.124;11.590;2023-05-24T12:25:47;95645.28;;;14.85;71.49
15405;BME280;7801;48.124;11.590;2023-05-24T12:28:12;95638.38;;;15.01;71.41
15405;BME280;7801;48.124;11.590;2023-05-24T12:30:37;95642.34;;;14.95;69.72
15405;BME280;7801;48.124;11.590;2023-05-24T12:33:09;95644.22;;;15.03;69.60
15405;BME280;7801;48.124;11.590;2023-05-24T12:35:34;95640.59;;;14.99;68.96
15405;BME280;7801;48.124;11.590;2023-05-24T12:38:00;95645.47;;;15.06;68.24
15405;BME280;7801;48.124;11.590;2023-05-24T12:40:25;95644.06;;;14.91;67.53
15405;BME280;7801;48.124;11.590;2023-05-24T12:42:55;95643.72;;;14.84;68.33
15405;BME280;7801;48.124;11.590;2023-05-24T12:45:25;95650.47;;;14.99;70.07
15405;BME280;7801;48.124;11.590;2023-05-24T12:47:52;95646.72;;;14.91;68.61
15405;BME280;7801;48.124;11.590;2023-05-24T12:50:18;95645.00;;;15.12;69.23
15405;BME280;7801;48.124;11.590;2023-05-24T12:52:45;95637.75;;;15.04;69.76
15405;BME280;7801;48.124;11.590;2023-05-24T12:55:12;95644.38;;;15.07;68.76
15405;BME280;7801;48.124;11.590;2023-05-24T12:57:37;95646.59;;;15.13;68.30
15405;BME280;7801;48.124;11.590;2023-05-24T13:00:03;95636.81;;;15.00;65.78
15405;BME280;7801;48.124;11.590;2023-05-24T13:02:29;95626.63;;;15.11;64.89
15405;BME280;7801;48.124;11.590;2023-05-24T13:04:55;95627.88;;;15.22;63.60
15405;BME280;7801;48.124;11.590;2023-05-24T13:07:20;95627.25;;;15.17;64.78
15405;BME280;7801;48.124;11.590;2023-05-24T13:09:46;95631.31;;;15.23;62.73
15405;BME280;7801;48.124;11.590;2023-05-24T13:12:12;95630.84;;;15.21;64.17
15405;BME280;7801;48.124;11.590;2023-05-24T13:14:37;95629.12;;;15.16;63.20